createdAt,value
2019-03-19T00:01:09.565Z,2.23
2019-03-19T00:03:36.246Z,2.33
2019-03-19T00:06:02.903Z,1.70
2019-03-19T00:08:29.435Z,1.93
2019-03-19T00:10:56.137Z,2.10
2019-03-19T00:13:22.897Z,1.77
2019-03-19T00:15:49.477Z,1.73
2019-03-19T00:18:16.626Z,1.63
2019-03-19T00:20:43.376Z,1.80
2019-03-19T00:23:09.906Z,2.07
2019-03-19T00:25:38.237Z,3.53
2019-03-19T00:28:05.149Z,1.90
2019-03-19T00:31:24.909Z,1.43
2019-03-19T00:33:51.846Z,1.80
2019-03-19T00:36:18.407Z,1.80
2019-03-19T00:38:45.571Z,1.40
2019-03-19T00:41:12.370Z,1.70
2019-03-19T00:43:38.927Z,1.80
2019-03-19T00:46:05.725Z,2.37
2019-03-19T00:48:32.413Z,2.20
2019-03-19T00:50:59.036Z,2.70
2019-03-19T00:54:20.399Z,2.20
2019-03-19T00:56:47.164Z,2.70
2019-03-19T00:59:13.845Z,2.37
2019-03-19T01:01:40.525Z,2.13
2019-03-19T01:04:07.380Z,2.00
2019-03-19T01:06:33.863Z,1.63
2019-03-19T01:09:00.546Z,2.10
2019-03-19T01:11:27.375Z,1.37
2019-03-19T01:13:53.982Z,1.70
2019-03-19T01:16:20.628Z,2.53
2019-03-19T01:19:42.500Z,2.17
2019-03-19T01:22:10.714Z,1.87
2019-03-19T01:24:37.414Z,2.03
2019-03-19T01:27:03.889Z,1.83
2019-03-19T01:29:30.600Z,1.40
2019-03-19T01:31:57.384Z,2.40
2019-03-19T01:35:18.773Z,2.17
2019-03-19T01:37:45.315Z,1.37
2019-03-19T01:40:13.091Z,1.70
2019-03-19T01:42:39.703Z,2.20
2019-03-19T01:45:06.489Z,2.43
2019-03-19T01:47:36.073Z,3.40
2019-03-19T01:50:03.271Z,1.60
2019-03-19T01:52:29.858Z,1.50
2019-03-19T01:54:57.004Z,2.10
2019-03-19T01:57:23.631Z,2.17
2019-03-19T02:00:45.006Z,1.87
2019-03-19T02:03:11.541Z,1.80
2019-03-19T02:05:38.170Z,2.17
2019-03-19T02:08:05.202Z,2.60
2019-03-19T02:11:05.267Z,1.67
2019-03-19T02:13:32.122Z,2.10
2019-03-19T02:15:58.627Z,2.73
2019-03-19T02:18:25.756Z,1.30
2019-03-19T02:21:00.218Z,2.60
2019-03-19T02:23:27.076Z,1.97
2019-03-19T02:25:53.890Z,2.40
2019-03-19T02:28:20.586Z,2.60
2019-03-19T02:31:00.708Z,2.00
2019-03-19T02:33:27.567Z,2.07
2019-03-19T02:35:54.098Z,2.60
2019-03-19T02:38:21.086Z,2.07
2019-03-19T02:40:57.530Z,2.63
2019-03-19T02:43:24.094Z,1.93
2019-03-19T02:45:53.497Z,1.80
2019-03-19T02:48:21.964Z,1.83
2019-03-19T02:50:54.909Z,1.33
2019-03-19T02:53:21.553Z,1.73
2019-03-19T02:55:48.432Z,2.50
2019-03-19T02:58:14.874Z,2.03
2019-03-19T03:00:43.295Z,1.50
2019-03-19T03:03:10.395Z,1.97
2019-03-19T03:05:53.085Z,2.00
2019-03-19T03:08:22.846Z,2.03
2019-03-19T03:10:49.481Z,2.67
2019-03-19T03:13:18.779Z,1.70
2019-03-19T03:15:45.686Z,2.30
2019-03-19T03:18:12.590Z,2.63
2019-03-19T03:20:39.197Z,3.50
2019-03-19T03:23:05.803Z,2.17
2019-03-19T03:25:32.813Z,2.53
2019-03-19T03:27:59.785Z,1.60
2019-03-19T03:30:44.970Z,1.83
2019-03-19T03:33:11.461Z,2.63
2019-03-19T03:35:38.061Z,1.80
2019-03-19T03:38:04.737Z,2.67
2019-03-19T03:40:31.255Z,2.73
2019-03-19T03:42:58.318Z,2.37
2019-03-19T03:45:24.913Z,2.10
2019-03-19T03:47:56.263Z,2.23
2019-03-19T03:50:23.260Z,2.10
2019-03-19T03:52:49.895Z,2.47
2019-03-19T03:55:16.468Z,2.53
2019-03-19T03:57:43.110Z,2.20
2019-03-19T04:00:38.313Z,1.83
2019-03-19T04:03:05.532Z,2.10
2019-03-19T04:05:32.062Z,2.20
2019-03-19T04:07:58.744Z,1.77
2019-03-19T04:10:32.173Z,1.60
2019-03-19T04:12:58.728Z,3.10
2019-03-19T04:15:25.265Z,1.60
2019-03-19T04:17:51.958Z,2.43
2019-03-19T04:20:18.624Z,2.83
2019-03-19T04:22:45.407Z,2.67
2019-03-19T04:25:12.317Z,2.30
2019-03-19T04:27:40.682Z,2.53
2019-03-19T04:30:27.590Z,2.73
2019-03-19T04:32:54.594Z,2.77
2019-03-19T04:35:21.909Z,1.93
2019-03-19T04:37:49.052Z,2.10
2019-03-19T04:40:15.797Z,1.60
2019-03-19T04:42:42.496Z,2.10
2019-03-19T04:45:09.686Z,2.87
2019-03-19T04:47:36.470Z,1.93
2019-03-19T04:50:21.768Z,1.60
2019-03-19T04:52:48.424Z,1.50
2019-03-19T04:55:19.797Z,1.90
2019-03-19T04:57:46.634Z,2.03
2019-03-19T05:00:19.322Z,1.83
2019-03-19T05:02:45.968Z,2.10
2019-03-19T05:05:19.006Z,2.00
2019-03-19T05:07:45.908Z,2.77
2019-03-19T05:10:19.099Z,2.73
2019-03-19T05:12:45.849Z,2.60
2019-03-19T05:15:12.873Z,2.83
2019-03-19T05:17:48.613Z,2.47
2019-03-19T05:20:15.483Z,2.30
2019-03-19T05:22:42.150Z,2.03
2019-03-19T05:25:09.345Z,2.53
2019-03-19T05:27:37.576Z,1.90
2019-03-19T05:30:05.135Z,2.30
2019-03-19T05:32:32.105Z,2.10
2019-03-19T05:35:14.013Z,1.57
2019-03-19T05:37:40.826Z,2.30
2019-03-19T05:40:09.894Z,2.00
2019-03-19T05:42:36.560Z,2.17
2019-03-19T05:45:03.923Z,2.30
2019-03-19T05:47:37.314Z,1.80
2019-03-19T05:49:59.614Z,2.10
2019-03-19T05:52:26.359Z,2.83
2019-03-19T05:54:52.968Z,2.00
2019-03-19T05:57:20.056Z,2.03
2019-03-19T05:59:48.148Z,2.20
2019-03-19T06:02:14.707Z,2.00
2019-03-19T06:04:42.681Z,1.80
2019-03-19T06:07:09.400Z,2.50
2019-03-19T06:09:36.271Z,2.33
2019-03-19T06:12:05.004Z,2.40
2019-03-19T06:14:31.870Z,2.80
2019-03-19T06:16:58.949Z,2.80
2019-03-19T06:19:25.600Z,2.57
2019-03-19T06:21:52.257Z,1.90
2019-03-19T06:24:19.283Z,2.50
2019-03-19T06:26:46.208Z,2.67
2019-03-19T06:29:13.253Z,2.20
2019-03-19T06:31:40.623Z,2.13
2019-03-19T06:34:07.346Z,2.00
2019-03-19T06:36:34.397Z,2.60
2019-03-19T06:39:55.848Z,3.10
2019-03-19T06:42:22.486Z,3.73
2019-03-19T06:44:49.244Z,3.93
2019-03-19T06:47:15.854Z,2.40
2019-03-19T06:49:55.140Z,3.03
2019-03-19T06:52:21.998Z,2.47
2019-03-19T06:54:49.038Z,3.13
2019-03-19T06:57:15.645Z,3.13
2019-03-19T06:59:42.248Z,2.47
2019-03-19T07:02:09.240Z,3.13
2019-03-19T07:04:36.346Z,2.67
2019-03-19T07:07:03.035Z,2.13
2019-03-19T07:09:30.032Z,3.20
2019-03-19T07:11:56.945Z,1.73
2019-03-19T07:14:59.422Z,2.20
2019-03-19T07:17:26.073Z,2.77
2019-03-19T07:19:58.564Z,3.60
2019-03-19T07:22:25.721Z,4.27
2019-03-19T07:24:54.224Z,3.10
2019-03-19T07:27:20.761Z,3.33
2019-03-19T07:29:47.745Z,2.77
2019-03-19T07:32:14.457Z,2.90
2019-03-19T07:34:41.032Z,2.60
2019-03-19T07:37:07.675Z,2.10
2019-03-19T07:43:14.669Z,2.50
2019-03-19T07:45:43.380Z,2.53
2019-03-19T07:48:10.560Z,2.43
2019-03-19T07:50:37.244Z,2.50
2019-03-19T07:53:04.050Z,2.10
2019-03-19T07:59:10.449Z,3.23
2019-03-19T08:01:36.955Z,2.30
2019-03-19T08:04:05.082Z,2.23
2019-03-19T08:06:32.758Z,2.20
2019-03-19T08:09:54.933Z,2.93
2019-03-19T08:12:21.445Z,2.53
2019-03-19T08:14:48.023Z,2.10
2019-03-19T08:17:14.649Z,2.00
2019-03-19T08:23:23.668Z,2.60
2019-03-19T08:25:50.459Z,1.90
2019-03-19T08:29:11.955Z,2.00
2019-03-19T08:31:38.769Z,1.73
2019-03-19T08:34:06.157Z,1.90
2019-03-19T08:40:12.794Z,2.20
2019-03-19T08:42:39.343Z,2.87
2019-03-19T08:45:07.496Z,2.87
2019-03-19T08:47:45.271Z,2.47
2019-03-19T08:50:13.686Z,2.50
2019-03-19T08:52:40.595Z,2.27
2019-03-19T08:55:07.926Z,2.37
2019-03-19T08:57:34.514Z,2.27
2019-03-19T09:00:01.100Z,2.20
2019-03-19T09:02:27.744Z,2.10
2019-03-19T09:04:54.361Z,1.30
2019-03-19T09:07:21.286Z,2.07
2019-03-19T09:09:48.491Z,2.00
2019-03-19T09:12:15.082Z,1.87
2019-03-19T09:18:21.994Z,2.13
2019-03-19T09:21:43.982Z,1.47
2019-03-19T09:24:10.651Z,2.57
2019-03-19T09:26:37.364Z,2.13
2019-03-19T09:32:43.625Z,1.50
2019-03-19T09:35:10.228Z,1.60
2019-03-19T09:37:44.446Z,2.30
2019-03-19T09:40:10.271Z,2.50
2019-03-19T09:42:36.994Z,1.87
2019-03-19T09:45:04.258Z,1.97
2019-03-19T09:47:31.044Z,1.57
2019-03-19T09:50:52.348Z,2.07
2019-03-19T09:56:59.774Z,1.50
2019-03-19T09:59:27.757Z,2.10
2019-03-19T10:01:54.531Z,1.00
2019-03-19T10:04:21.828Z,1.00
2019-03-19T10:06:48.389Z,0.97
2019-03-19T10:10:10.044Z,1.20
2019-03-19T10:12:46.910Z,1.40
2019-03-19T10:15:13.650Z,1.30
2019-03-19T10:17:40.364Z,1.30
2019-03-19T10:20:08.996Z,1.10
2019-03-19T10:23:30.994Z,1.40
2019-03-19T10:29:38.569Z,0.90
2019-03-19T10:32:05.500Z,1.30
2019-03-19T10:34:32.067Z,1.50
2019-03-19T10:36:58.620Z,1.20
2019-03-19T10:39:25.494Z,1.00
2019-03-19T10:41:52.125Z,0.83
2019-03-19T10:44:18.829Z,0.80
2019-03-19T10:46:45.362Z,1.60
2019-03-19T10:52:53.084Z,0.87
2019-03-19T10:55:20.405Z,1.43
2019-03-19T10:57:47.377Z,1.00
2019-03-19T11:00:18.427Z,1.03
2019-03-19T11:02:45.389Z,1.23
2019-03-19T11:05:12.447Z,1.30
2019-03-19T11:07:39.149Z,1.13
2019-03-19T11:10:06.114Z,1.20
2019-03-19T11:12:32.655Z,1.40
2019-03-19T11:14:59.157Z,1.07
2019-03-19T11:18:21.100Z,0.80
2019-03-19T11:20:49.593Z,1.03
2019-03-19T11:23:16.320Z,1.30
2019-03-19T11:25:42.958Z,0.93
2019-03-19T11:28:13.794Z,1.10
2019-03-19T11:30:40.150Z,1.33
2019-03-19T11:33:06.764Z,0.80
2019-03-19T11:35:33.405Z,1.30
2019-03-19T11:38:18.295Z,1.30
2019-03-19T11:40:44.923Z,0.83
2019-03-19T11:43:11.653Z,1.10
2019-03-19T11:45:38.351Z,1.43
2019-03-19T11:51:45.643Z,1.60
2019-03-19T11:57:52.799Z,1.30
2019-03-19T12:00:26.638Z,1.17
2019-03-19T12:02:53.501Z,1.07
2019-03-19T12:08:59.746Z,1.77
2019-03-19T12:11:26.325Z,1.30
2019-03-19T12:13:52.995Z,0.80
2019-03-19T12:16:19.543Z,0.80
2019-03-19T12:18:46.084Z,0.90
2019-03-19T12:21:12.768Z,1.00
2019-03-19T12:23:39.333Z,1.20
2019-03-19T12:26:06.052Z,1.07
2019-03-19T12:29:27.318Z,1.37
2019-03-19T12:31:53.869Z,1.40
2019-03-19T12:34:20.555Z,1.40
2019-03-19T12:36:47.512Z,1.50
2019-03-19T12:39:14.080Z,1.17
2019-03-19T12:41:40.650Z,1.30
2019-03-19T12:47:47.044Z,1.00
2019-03-19T12:53:17.969Z,1.10
2019-03-19T12:55:44.695Z,1.50
2019-03-19T12:58:11.787Z,1.10
2019-03-19T13:00:38.777Z,0.97
2019-03-19T13:03:05.385Z,1.10
2019-03-19T13:05:32.067Z,1.57
2019-03-19T13:08:00.965Z,1.30
2019-03-19T13:10:27.515Z,1.20
2019-03-19T13:12:54.657Z,1.30
2019-03-19T13:15:23.585Z,1.10
2019-03-19T13:17:50.328Z,1.40
2019-03-19T13:20:17.029Z,1.40
2019-03-19T13:22:43.726Z,1.37
2019-03-19T13:25:12.094Z,0.80
2019-03-19T13:27:38.776Z,1.00
2019-03-19T13:30:07.611Z,1.20
2019-03-19T13:32:34.201Z,1.47
2019-03-19T13:35:01.358Z,1.60
2019-03-19T13:38:23.217Z,1.87
2019-03-19T13:40:49.887Z,1.13
2019-03-19T13:43:16.698Z,1.23
2019-03-19T13:45:43.304Z,1.30
2019-03-19T13:49:20.828Z,1.47
2019-03-19T13:51:47.772Z,1.37
2019-03-19T13:54:16.662Z,1.70
2019-03-19T13:57:38.283Z,1.70
2019-03-19T14:00:06.385Z,0.97
2019-03-19T14:02:33.450Z,1.17
2019-03-19T14:05:00.367Z,1.63
2019-03-19T14:07:27.264Z,1.60
2019-03-19T14:09:54.040Z,0.93
2019-03-19T14:12:20.545Z,1.20
2019-03-19T14:14:47.424Z,1.20
2019-03-19T14:17:14.042Z,1.10
2019-03-19T14:19:40.615Z,1.33
2019-03-19T14:22:07.496Z,1.33
2019-03-19T14:24:34.105Z,1.27
2019-03-19T14:27:01.240Z,1.73
2019-03-19T14:29:27.772Z,1.23
2019-03-19T14:35:37.571Z,1.50
2019-03-19T14:38:02.698Z,1.50
2019-03-19T14:40:29.757Z,1.23
2019-03-19T14:44:03.838Z,0.97
2019-03-19T14:46:30.788Z,1.73
2019-03-19T14:48:57.306Z,1.23
2019-03-19T14:51:24.148Z,0.90
2019-03-19T14:53:50.823Z,1.90
2019-03-19T14:56:17.350Z,1.40
2019-03-19T14:58:43.887Z,1.47
2019-03-19T15:01:18.985Z,1.50
2019-03-19T15:03:39.135Z,1.20
2019-03-19T15:06:06.307Z,1.20
2019-03-19T15:08:33.116Z,1.50
2019-03-19T15:11:54.505Z,1.80
2019-03-19T15:14:21.057Z,1.80
2019-03-19T15:16:47.594Z,1.90
2019-03-19T15:19:14.141Z,1.53
2019-03-19T15:21:40.779Z,2.03
2019-03-19T15:27:48.579Z,1.70
2019-03-19T15:30:15.181Z,1.30
2019-03-19T15:32:42.253Z,1.50
2019-03-19T15:35:09.074Z,1.93
2019-03-19T15:38:14.588Z,1.63
2019-03-19T15:44:21.533Z,1.40
2019-03-19T15:46:48.047Z,1.37
2019-03-19T15:52:54.974Z,1.87
2019-03-19T15:59:01.611Z,1.67
2019-03-19T16:01:28.147Z,1.33
2019-03-19T16:03:55.439Z,1.50
2019-03-19T16:06:22.298Z,1.60
2019-03-19T16:08:48.787Z,1.27
2019-03-19T16:11:15.376Z,1.87
2019-03-19T16:13:41.929Z,1.90
2019-03-19T16:16:08.615Z,2.67
2019-03-19T16:18:52.995Z,1.90
2019-03-19T16:21:19.586Z,1.73
2019-03-19T16:24:41.222Z,2.73
2019-03-19T16:27:15.188Z,3.00
2019-03-19T16:29:45.185Z,3.23
2019-03-19T16:32:11.723Z,7.50
2019-03-19T16:34:38.288Z,17.13
2019-03-19T16:37:06.315Z,11.13
2019-03-19T16:39:43.513Z,9.43
2019-03-19T16:42:10.105Z,2.67
2019-03-19T16:44:36.995Z,4.23
2019-03-19T16:47:04.903Z,5.20
2019-03-19T16:49:36.218Z,3.23
2019-03-19T16:52:03.318Z,4.67
2019-03-19T16:54:29.879Z,8.83
2019-03-19T16:56:56.494Z,4.63
2019-03-19T16:59:25.388Z,3.37
2019-03-19T17:02:01.556Z,4.73
2019-03-19T17:04:20.601Z,3.53
2019-03-19T17:10:27.896Z,3.70
2019-03-19T17:13:01.679Z,5.50
2019-03-19T17:15:28.289Z,5.47
2019-03-19T17:18:03.133Z,3.47
2019-03-19T17:20:38.546Z,3.20
2019-03-19T17:23:12.529Z,3.20
2019-03-19T17:25:49.490Z,4.33
2019-03-19T17:28:22.364Z,5.67
2019-03-19T17:31:12.145Z,5.00
2019-03-19T17:33:39.105Z,3.97
2019-03-19T17:36:16.481Z,3.63
2019-03-19T17:38:42.971Z,3.03
2019-03-19T17:41:18.649Z,2.77
2019-03-19T17:43:49.368Z,4.67
2019-03-19T17:46:21.812Z,3.90
2019-03-19T17:52:36.212Z,1.90
2019-03-19T17:55:02.969Z,2.00
2019-03-19T17:57:45.691Z,1.50
2019-03-19T18:00:24.226Z,1.73
2019-03-19T18:02:50.904Z,1.60
2019-03-19T18:05:20.722Z,1.90
2019-03-19T18:07:55.184Z,1.30
2019-03-19T18:10:24.497Z,1.60
2019-03-19T18:12:51.403Z,1.33
2019-03-19T18:15:20.947Z,1.57
2019-03-19T18:17:48.799Z,1.57
2019-03-19T18:20:21.172Z,1.67
2019-03-19T18:22:52.970Z,1.20
2019-03-19T18:26:20.278Z,1.70
2019-03-19T18:29:10.710Z,1.20
2019-03-19T18:31:25.467Z,2.20
2019-03-19T18:36:51.035Z,2.10
2019-03-19T18:39:17.921Z,1.23
2019-03-19T18:41:44.563Z,1.20
2019-03-19T18:45:05.883Z,1.10
2019-03-19T18:47:32.897Z,1.57
2019-03-19T18:49:59.564Z,2.00
2019-03-19T18:52:35.299Z,1.60
2019-03-19T18:55:01.858Z,1.47
2019-03-19T18:57:28.714Z,2.00
2019-03-19T19:10:13.097Z,1.10
2019-03-19T19:12:40.012Z,1.40
2019-03-19T19:15:08.714Z,1.50
2019-03-19T19:21:14.706Z,1.10
2019-03-19T19:23:41.616Z,1.90
2019-03-19T19:26:11.438Z,2.57
2019-03-19T19:28:37.976Z,1.13
2019-03-19T19:31:04.805Z,1.10
2019-03-19T19:33:31.631Z,1.70
2019-03-19T19:35:58.121Z,0.90
2019-03-19T19:38:24.706Z,1.14
2019-03-19T19:40:51.513Z,1.23
2019-03-19T19:43:18.011Z,1.47
2019-03-19T19:49:24.579Z,1.60
2019-03-19T19:51:51.471Z,1.30
2019-03-19T19:58:05.178Z,1.20
2019-03-19T20:00:35.777Z,1.20
2019-03-19T20:03:12.163Z,2.13
2019-03-19T20:05:37.344Z,1.63
2019-03-19T20:08:15.681Z,1.60
2019-03-19T20:10:42.606Z,1.40
2019-03-19T20:13:58.973Z,1.23
2019-03-19T20:20:08.342Z,1.40
2019-03-19T20:22:40.262Z,1.50
2019-03-19T20:28:52.978Z,1.60
2019-03-19T20:32:19.625Z,2.10
2019-03-19T20:35:20.801Z,1.90
2019-03-19T20:38:55.488Z,2.13
2019-03-19T20:41:13.570Z,1.80
2019-03-19T20:43:40.139Z,1.37
2019-03-19T20:46:06.715Z,1.60
2019-03-19T20:52:13.017Z,2.00
2019-03-19T20:54:39.684Z,1.87
2019-03-19T20:57:06.328Z,1.60
2019-03-19T20:59:32.854Z,2.03
2019-03-19T21:01:59.406Z,1.90
2019-03-19T21:04:28.947Z,2.23
2019-03-19T21:06:55.144Z,2.37
2019-03-19T21:09:21.805Z,1.80
2019-03-19T21:11:48.308Z,2.37
2019-03-19T21:14:14.912Z,1.80
2019-03-19T21:16:41.642Z,3.07
2019-03-19T21:19:08.188Z,1.67
2019-03-19T21:21:35.566Z,2.20
2019-03-19T21:24:05.350Z,1.80
2019-03-19T21:26:31.919Z,1.97
2019-03-19T21:29:02.018Z,2.23
2019-03-19T21:31:31.527Z,2.07
2019-03-19T21:34:20.772Z,1.90
2019-03-19T21:36:49.188Z,2.10
2019-03-19T21:39:17.756Z,1.93
2019-03-19T21:41:44.326Z,1.77
2019-03-19T21:44:10.913Z,2.90
2019-03-19T21:47:22.223Z,1.77
2019-03-19T21:49:50.618Z,2.10
2019-03-19T21:52:17.618Z,1.97
2019-03-19T21:54:44.224Z,2.30
2019-03-19T21:57:14.577Z,1.70
2019-03-19T21:59:41.821Z,1.90
2019-03-19T22:02:19.166Z,2.50
2019-03-19T22:04:45.697Z,2.20
2019-03-19T22:07:14.772Z,1.30
2019-03-19T22:13:21.466Z,2.50
2019-03-19T22:19:28.214Z,1.70
2019-03-19T22:21:55.026Z,2.20
2019-03-19T22:24:21.968Z,1.90
2019-03-19T22:27:11.277Z,1.37
2019-03-19T22:29:37.841Z,1.87
2019-03-19T22:32:04.610Z,1.80
2019-03-19T22:34:31.129Z,1.73
2019-03-19T22:36:57.717Z,2.40
2019-03-19T22:39:24.313Z,1.80
2019-03-19T22:42:14.239Z,2.07
2019-03-19T22:44:43.675Z,1.93
2019-03-19T22:47:20.834Z,1.43
2019-03-19T22:49:58.887Z,1.77
2019-03-19T22:52:27.861Z,1.87
2019-03-19T22:54:54.421Z,2.00
2019-03-19T22:58:16.571Z,1.70
2019-03-19T23:00:45.296Z,1.77
2019-03-19T23:06:51.624Z,1.67
2019-03-19T23:09:18.223Z,1.40
2019-03-19T23:11:45.058Z,1.43
2019-03-19T23:14:11.540Z,1.57
2019-03-19T23:16:38.047Z,2.50
2019-03-19T23:19:05.009Z,1.67
2019-03-19T23:21:31.571Z,1.63
2019-03-19T23:23:58.435Z,1.90
2019-03-19T23:26:24.964Z,1.93
2019-03-19T23:28:51.459Z,1.10
2019-03-19T23:31:18.135Z,2.47
2019-03-19T23:33:44.626Z,1.53
2019-03-19T23:36:11.162Z,1.50
2019-03-19T23:38:37.697Z,1.33
2019-03-19T23:41:04.170Z,2.17
2019-03-19T23:43:30.765Z,1.20
2019-03-19T23:45:57.900Z,1.73
2019-03-19T23:48:24.507Z,1.70
2019-03-19T23:50:54.234Z,1.47
2019-03-19T23:53:21.110Z,1.87
2019-03-19T23:55:54.025Z,1.87
2019-03-19T23:58:20.590Z,1.67
